Terminal Aerodrome Forecast
Issued by NWS

Home | Current Version | Previous Version | Graphics & Text | Print | Product List | Glossary On
Versions: 1 2 3 4 5 6 7 8 9 10 11 12 13 14 15 16
000
FTUS43 KTOP 132000 AAB
TAFMHK
TAF AMD
KMHK 132037Z 1321/1418 35017G27KT 5SM BR OVC012
     FM140900 34015G22KT 4SM -SN OVC012
     FM141500 34014G21KT P6SM BKN035=

USA.gov is the U.S. government's official web portal to all federal, state and local government web resources and services.